createdAt,value
2017-07-29T00:01:34.246Z,69.07
2017-07-29T00:03:41.633Z,69.07
2017-07-29T00:05:57.476Z,68.59
2017-07-29T00:08:04.809Z,68.98
2017-07-29T00:10:29.098Z,68.78
2017-07-29T00:12:53.283Z,70.39
2017-07-29T00:15:17.564Z,71.12
2017-07-29T00:17:24.842Z,71.12
2017-07-29T00:19:40.637Z,71.51
2017-07-29T00:21:50.568Z,70.68
2017-07-29T00:24:14.677Z,71.06
2017-07-29T00:26:30.392Z,71.32
2017-07-29T00:28:37.679Z,72
2017-07-29T00:31:01.937Z,73.31
2017-07-29T00:33:26.086Z,73.69
2017-07-29T00:35:50.295Z,73.15
2017-07-29T00:37:51.699Z,73.69
2017-07-29T00:40:15.831Z,73.69
2017-07-29T00:42:39.935Z,73.99
2017-07-29T00:44:47.156Z,73.99
2017-07-29T00:47:11.284Z,74.57
2017-07-29T00:49:35.466Z,74.76
2017-07-29T00:51:59.716Z,74.95
2017-07-29T00:54:23.831Z,75.53
2017-07-29T00:56:48.019Z,75.01
2017-07-29T00:59:12.107Z,75.24
2017-07-29T01:01:19.321Z,75.34
2017-07-29T01:03:35.025Z,75.88
2017-07-29T01:05:59.119Z,76.07
2017-07-29T01:07:58.007Z,76.07
2017-07-29T01:10:22.074Z,76.07
2017-07-29T01:12:37.755Z,76.93
2017-07-29T01:15:01.900Z,76.36
2017-07-29T01:17:26.079Z,76.17
2017-07-29T01:19:50.271Z,76.45
2017-07-29T01:22:05.943Z,76.93
2017-07-29T01:24:21.628Z,76.07
2017-07-29T01:26:45.818Z,76.17
2017-07-29T01:29:09.896Z,76.26
2017-07-29T01:31:33.981Z,76.93
2017-07-29T01:33:58.151Z,77.33
2017-07-29T01:36:22.345Z,77
2017-07-29T01:38:29.637Z,76.55
2017-07-29T01:40:54.406Z,76.71
2017-07-29T01:43:18.618Z,76.75
2017-07-29T01:45:34.306Z,76.55
2017-07-29T01:47:58.385Z,77.33
2017-07-29T01:50:05.676Z,77.19
2017-07-29T01:52:29.757Z,77.23
2017-07-29T01:54:53.824Z,77.76
2017-07-29T01:57:09.392Z,77.67
2017-07-29T01:59:33.497Z,77.86
2017-07-29T02:01:49.192Z,78.06
2017-07-29T02:04:13.272Z,78.54
2017-07-29T02:06:37.352Z,78.54
2017-07-29T02:09:01.432Z,79.11
2017-07-29T02:11:17.033Z,79.02
2017-07-29T02:13:41.200Z,79.69
2017-07-29T02:15:56.845Z,80.04
2017-07-29T02:18:20.968Z,80.04
2017-07-29T02:20:45.002Z,79.94
2017-07-29T02:22:52.227Z,79.46
2017-07-29T02:25:16.257Z,79.27
2017-07-29T02:27:40.289Z,80.04
2017-07-29T02:30:04.381Z,80.14
2017-07-29T02:32:28.465Z,80.91
2017-07-29T02:34:44.143Z,80.04
2017-07-29T02:36:59.786Z,80.14
2017-07-29T02:39:23.905Z,80.04
2017-07-29T02:41:47.993Z,80.52
2017-07-29T02:44:11.953Z,80.43
2017-07-29T02:46:27.553Z,80.04
2017-07-29T02:48:51.637Z,80.43
2017-07-29T02:51:07.318Z,79.94
2017-07-29T02:53:31.398Z,79.94
2017-07-29T02:55:55.492Z,80.43
2017-07-29T02:58:19.565Z,79.94
2017-07-29T03:00:43.647Z,80.23
2017-07-29T03:02:50.895Z,79.36
2017-07-29T03:05:14.918Z,79.46
2017-07-29T03:07:30.496Z,79.46
2017-07-29T03:09:54.566Z,79.17
2017-07-29T03:12:10.265Z,79.94
2017-07-29T03:14:34.347Z,79.94
2017-07-29T03:16:58.435Z,79.75
2017-07-29T03:19:22.511Z,78.98
2017-07-29T03:21:46.533Z,79.17
2017-07-29T03:24:02.177Z,78.98
2017-07-29T03:26:17.821Z,79.17
2017-07-29T03:28:41.942Z,78.73
2017-07-29T03:31:06.029Z,79.31
2017-07-29T03:33:30.110Z,79.08
2017-07-29T03:35:54.190Z,79.66
2017-07-29T03:38:09.766Z,79.08
2017-07-29T03:40:33.852Z,78.98
2017-07-29T03:42:57.932Z,79.08
2017-07-29T03:45:22.019Z,78.59
2017-07-29T03:47:20.737Z,78.59
2017-07-29T03:49:36.388Z,78.73
2017-07-29T03:52:00.477Z,78.63
2017-07-29T03:54:24.551Z,78.98
2017-07-29T03:56:48.632Z,80.14
2017-07-29T03:58:55.816Z,80.14
2017-07-29T04:01:19.898Z,80.71
2017-07-29T04:03:43.914Z,80.87
2017-07-29T04:06:07.967Z,80.96
2017-07-29T04:08:32.048Z,81.63
2017-07-29T04:10:47.611Z,81.25
2017-07-29T04:13:11.713Z,80.96
2017-07-29T04:15:35.708Z,79.94
2017-07-29T04:17:51.377Z,79.75
2017-07-29T04:20:15.452Z,79.56
2017-07-29T04:22:39.532Z,79.08
2017-07-29T04:25:03.630Z,77.67
2017-07-29T04:27:19.266Z,77.28
2017-07-29T04:29:43.286Z,77.09
2017-07-29T04:32:07.312Z,76.8
2017-07-29T04:34:22.950Z,76.9
2017-07-29T04:36:38.638Z,76.61
2017-07-29T04:39:02.752Z,75.3
2017-07-29T04:41:26.900Z,75.36
2017-07-29T04:43:34.139Z,75.36
2017-07-29T04:45:58.170Z,75.4
2017-07-29T04:48:22.219Z,75.2
2017-07-29T04:50:46.329Z,75.01
2017-07-29T04:53:10.417Z,75.2
2017-07-29T04:55:26.100Z,74.78
2017-07-29T04:57:50.185Z,75.26
2017-07-29T05:00:05.754Z,74.97
2017-07-29T05:02:29.765Z,75.65
2017-07-29T05:04:53.821Z,75.3
2017-07-29T05:07:09.508Z,75.1
2017-07-29T05:09:33.592Z,73.99
2017-07-29T05:11:57.637Z,74.08
2017-07-29T05:14:13.361Z,73.31
2017-07-29T05:16:37.548Z,73.02
2017-07-29T05:19:01.627Z,72.92
2017-07-29T05:21:25.810Z,72.38
2017-07-29T05:23:49.997Z,72.67
2017-07-29T05:26:14.063Z,71.8
2017-07-29T05:28:38.145Z,71.61
2017-07-29T05:30:53.907Z,72.09
2017-07-29T05:33:18.030Z,71.9
2017-07-29T05:35:42.144Z,72.34
2017-07-29T05:37:57.893Z,72.77
2017-07-29T05:40:22.015Z,71.61
2017-07-29T05:42:37.707Z,71.26
2017-07-29T05:45:01.843Z,70.78
2017-07-29T05:47:26.035Z,71.16
2017-07-29T05:49:50.193Z,70.2
2017-07-29T05:52:14.331Z,70.97
2017-07-29T05:54:21.612Z,69.84
2017-07-29T05:56:37.441Z,69.71
2017-07-29T05:59:02.176Z,68.78
2017-07-29T06:01:17.872Z,69.65
2017-07-29T06:03:42.047Z,69.17
2017-07-29T06:06:06.342Z,69.26
2017-07-29T06:08:30.622Z,68.3
2017-07-29T06:10:54.907Z,69.13
2017-07-29T06:13:10.703Z,68.88
2017-07-29T06:15:34.856Z,68.1
2017-07-29T06:17:50.604Z,67.72
2017-07-29T06:19:57.895Z,68.24
2017-07-29T06:22:22.142Z,67.36
2017-07-29T06:24:37.926Z,66.72
2017-07-29T06:27:02.217Z,66.63
2017-07-29T06:29:17.998Z,67.46
2017-07-29T06:31:33.776Z,67.27
2017-07-29T06:33:58.077Z,67.46
2017-07-29T06:36:22.364Z,66.69
2017-07-29T06:38:46.653Z,66.72
2017-07-29T06:41:10.942Z,66.82
2017-07-29T06:43:18.294Z,67.46
2017-07-29T06:45:42.459Z,67.56
2017-07-29T06:47:58.229Z,67.56
2017-07-29T06:50:14.094Z,68.04
2017-07-29T06:52:38.322Z,67.75
2017-07-29T06:55:02.658Z,66.91
2017-07-29T06:57:10.104Z,67.17
2017-07-29T06:59:25.902Z,67.46
2017-07-29T07:01:41.680Z,67.56
2017-07-29T07:04:05.892Z,66.82
2017-07-29T07:06:30.202Z,66.53
2017-07-29T07:08:54.486Z,64.75
2017-07-29T07:11:18.877Z,64.27
2017-07-29T07:13:43.271Z,63.14
2017-07-29T07:15:59.159Z,61.62
2017-07-29T07:18:23.509Z,60.75
2017-07-29T07:20:47.942Z,60.75
2017-07-29T07:23:12.437Z,61.14
2017-07-29T07:25:36.773Z,61.33
2017-07-29T07:27:44.315Z,61.33
2017-07-29T07:30:08.804Z,60.78
2017-07-29T07:32:16.274Z,59.45
2017-07-29T07:34:23.837Z,57.79
2017-07-29T07:36:48.293Z,54.86
2017-07-29T07:39:12.761Z,52.5
2017-07-29T07:41:37.254Z,51.24
2017-07-29T07:44:01.874Z,49.63
2017-07-29T07:46:26.580Z,45.97
2017-07-29T07:48:37.166Z,46.21
2017-07-29T07:50:53.952Z,46.36
2017-07-29T07:53:18.693Z,48.39
2017-07-29T07:55:43.405Z,48.85
2017-07-29T07:58:08.248Z,46.97
2017-07-29T08:00:33.064Z,44.42
2017-07-29T08:02:59.998Z,42.97
2017-07-29T08:05:25.013Z,39.98
2017-07-29T08:07:50.124Z,35.97
2017-07-29T08:10:15.351Z,32.45
2017-07-29T08:12:40.710Z,29.27
2017-07-29T08:15:06.188Z,28.58
2017-07-29T08:17:38.567Z,31.35
2017-07-29T08:20:04.138Z,33.61
2017-07-29T08:22:29.794Z,32.18
2017-07-29T08:24:47.845Z,31.88
2017-07-29T08:27:21.036Z,30.91
2017-07-29T08:29:38.087Z,29.5
2017-07-29T08:32:11.668Z,27.37
2017-07-29T08:34:37.494Z,26.44
2017-07-29T08:37:03.323Z,26.52
2017-07-29T08:39:37.035Z,27.09
2017-07-29T08:42:02.862Z,29.37
2017-07-29T08:44:35.558Z,28.13
2017-07-29T08:47:01.268Z,28.97
2017-07-29T08:49:18.438Z,28.7
2017-07-29T08:51:42.545Z,29.07
2017-07-29T08:54:10.218Z,28.99
2017-07-29T08:56:37.912Z,32.1
2017-07-29T08:59:03.568Z,34
2017-07-29T09:01:29.129Z,32.2
2017-07-29T09:03:38.661Z,31.27
2017-07-29T09:05:55.707Z,28.96
2017-07-29T09:08:21.265Z,28.31
2017-07-29T09:10:47.833Z,29.74
2017-07-29T09:13:13.348Z,34.3
2017-07-29T09:15:38.814Z,33.84
2017-07-29T09:17:55.727Z,32.14
2017-07-29T09:20:12.652Z,33.92
2017-07-29T09:22:38.025Z,33.53
2017-07-29T09:25:03.445Z,33.53
2017-07-29T09:27:28.878Z,32.6
2017-07-29T09:29:54.289Z,33.33
2017-07-29T09:32:20.650Z,33.74
2017-07-29T09:34:38.508Z,34.41
2017-07-29T09:37:03.872Z,35.44
2017-07-29T09:39:29.313Z,35.82
2017-07-29T09:41:54.702Z,36.96
2017-07-29T09:44:20.024Z,35.93
2017-07-29T09:46:45.405Z,34.51
2017-07-29T09:49:10.813Z,34.11
2017-07-29T09:51:36.181Z,33.54
2017-07-29T09:54:01.524Z,35.34
2017-07-29T09:56:26.881Z,37.56
2017-07-29T09:58:52.251Z,36.9
2017-07-29T10:01:17.624Z,38.31
2017-07-29T10:03:42.960Z,37.66
2017-07-29T10:05:59.872Z,38.35
2017-07-29T10:08:32.076Z,38.23
2017-07-29T10:10:57.354Z,37.96
2017-07-29T10:13:22.662Z,38.25
2017-07-29T10:15:47.898Z,39.17
2017-07-29T10:18:13.195Z,39.66
2017-07-29T10:20:38.449Z,39.86
2017-07-29T10:23:03.712Z,39.49
2017-07-29T10:25:28.982Z,39.88
2017-07-29T10:27:56.132Z,39.59
2017-07-29T10:30:21.338Z,40.35
2017-07-29T10:32:46.552Z,40.08
2017-07-29T10:35:28.590Z,39.88
2017-07-29T10:37:53.759Z,40.66
2017-07-29T10:40:18.952Z,41.76
2017-07-29T10:42:44.137Z,41.96
2017-07-29T10:45:09.289Z,40.53
2017-07-29T10:47:34.469Z,40.64
2017-07-29T10:49:51.008Z,41.19
2017-07-29T10:52:17.125Z,41.41
2017-07-29T10:54:59.101Z,42.05
2017-07-29T10:57:24.195Z,42.54
2017-07-29T10:59:41.771Z,42.71
2017-07-29T11:02:13.599Z,43.77
2017-07-29T11:04:38.684Z,42.91
2017-07-29T11:07:03.745Z,42.71
2017-07-29T11:09:28.762Z,44.16
2017-07-29T11:11:53.816Z,44.24
2017-07-29T11:14:18.873Z,44.06
2017-07-29T11:16:43.875Z,43.57
2017-07-29T11:19:08.867Z,44.43
2017-07-29T11:21:34.069Z,44.63
2017-07-29T11:23:58.980Z,44.84
2017-07-29T11:26:40.621Z,45.21
2017-07-29T11:29:05.637Z,44.74
2017-07-29T11:31:30.627Z,44.35
2017-07-29T11:33:57.351Z,44.24
2017-07-29T11:36:30.342Z,43.59
2017-07-29T11:38:55.388Z,42.64
2017-07-29T11:41:20.456Z,43.52
2017-07-29T11:43:45.444Z,43.62
2017-07-29T11:46:12.717Z,42.71
2017-07-29T11:48:38.713Z,45.31
2017-07-29T11:52:40.253Z,44.92
2017-07-29T11:55:05.103Z,46.11
2017-07-29T11:57:30.107Z,44.87
2017-07-29T11:59:54.960Z,43.32
2017-07-29T12:02:19.951Z,43.81
2017-07-29T12:04:44.900Z,44.03
2017-07-29T12:07:09.879Z,43.66
2017-07-29T12:09:12.790Z,43.32
2017-07-29T12:11:40.006Z,43.52
2017-07-29T12:14:13.842Z,43.81
2017-07-29T12:16:41.867Z,43.62
2017-07-29T12:19:06.772Z,43.15
2017-07-29T12:21:31.699Z,43.17
2017-07-29T12:23:48.185Z,43.42
2017-07-29T12:26:13.123Z,44.67
2017-07-29T12:28:21.132Z,44.26
2017-07-29T12:30:46.114Z,44.81
2017-07-29T12:32:47.735Z,43.99
2017-07-29T12:36:57.369Z,44.74
2017-07-29T12:39:13.867Z,45.61
2017-07-29T12:41:38.810Z,44.94
2017-07-29T12:44:03.705Z,45.7
2017-07-29T12:46:28.580Z,44.65
2017-07-29T12:48:54.617Z,44.67
2017-07-29T12:51:19.487Z,45.65
2017-07-29T12:53:44.486Z,44.87
2017-07-29T12:56:02.629Z,45.16
2017-07-29T12:58:28.858Z,45.7
2017-07-29T13:00:55.800Z,45.14
2017-07-29T13:03:20.806Z,45.72
2017-07-29T13:05:45.807Z,45.16
2017-07-29T13:08:10.812Z,45.26
2017-07-29T13:10:20.980Z,44.89
2017-07-29T13:12:45.912Z,44.4
2017-07-29T13:15:10.929Z,43.91
2017-07-29T13:17:35.895Z,44.69
2017-07-29T13:19:46.105Z,44.59
2017-07-29T13:22:02.520Z,45.36
2017-07-29T13:24:27.484Z,45.26
2017-07-29T13:26:43.915Z,45.26
2017-07-29T13:29:09.375Z,44.98
2017-07-29T13:31:34.275Z,45.3
2017-07-29T13:33:59.214Z,44.62
2017-07-29T13:36:24.346Z,43.66
2017-07-29T13:39:05.979Z,43.58
2017-07-29T13:41:30.986Z,44.23
2017-07-29T13:43:56.022Z,45.1
2017-07-29T13:46:21.018Z,44.23
2017-07-29T13:48:45.967Z,45.37
2017-07-29T13:51:10.948Z,45.67
2017-07-29T13:53:21.153Z,45.2
2017-07-29T13:55:46.123Z,45.4
2017-07-29T13:58:11.097Z,45.1
2017-07-29T14:00:27.571Z,45.5
2017-07-29T14:02:30.589Z,44.83
2017-07-29T14:04:55.545Z,44.44
2017-07-29T14:07:20.817Z,44.73
2017-07-29T14:09:37.492Z,44.85
2017-07-29T14:11:54.664Z,44.93
2017-07-29T14:14:20.662Z,45.59
2017-07-29T14:16:48.967Z,45.47
2017-07-29T14:19:14.725Z,45.76
2017-07-29T14:21:45.037Z,46.26
2017-07-29T14:24:13.652Z,45.67
2017-07-29T14:26:42.099Z,45.45
2017-07-29T14:29:07.429Z,46.14
2017-07-29T14:31:32.389Z,46.16
2017-07-29T14:33:49.966Z,46.33
2017-07-29T14:36:14.916Z,46.65
2017-07-29T14:38:31.354Z,45.28
2017-07-29T14:40:56.364Z,46.18
2017-07-29T14:43:21.366Z,46.26
2017-07-29T14:45:46.363Z,46.47
2017-07-29T14:48:11.366Z,45.79
2017-07-29T14:50:36.341Z,46.75
2017-07-29T14:53:01.306Z,46.26
2017-07-29T14:55:26.336Z,46.23
2017-07-29T14:57:27.901Z,46.43
2017-07-29T14:59:52.862Z,47.14
2017-07-29T15:02:17.818Z,46.55
2017-07-29T15:04:34.302Z,46.82
2017-07-29T15:06:59.204Z,46.36
2017-07-29T15:09:24.108Z,46.75
2017-07-29T15:11:49.025Z,46.28
2017-07-29T15:14:13.974Z,46.84
2017-07-29T15:16:38.871Z,47.24
2017-07-29T15:19:03.821Z,46.94
2017-07-29T15:21:28.771Z,46.94
2017-07-29T15:23:30.485Z,45.79
2017-07-29T15:25:55.413Z,46.94
2017-07-29T15:28:11.882Z,46.55
2017-07-29T15:30:36.840Z,46.28
2017-07-29T15:33:01.781Z,46.65
2017-07-29T15:35:18.225Z,47.04
2017-07-29T15:37:43.163Z,47.33
2017-07-29T15:40:08.094Z,46.55
2017-07-29T15:42:33.063Z,46.84
2017-07-29T15:44:58.048Z,46.82
2017-07-29T15:47:22.982Z,47.04
2017-07-29T15:49:47.944Z,47.02
2017-07-29T15:52:12.828Z,46.72
2017-07-29T15:54:14.426Z,46.92
2017-07-29T15:56:39.289Z,48.05
2017-07-29T16:00:40.644Z,48.16
2017-07-29T16:03:05.548Z,47.7
2017-07-29T16:05:30.641Z,47.87
2017-07-29T16:07:55.560Z,47.48
2017-07-29T16:10:20.447Z,47.11
2017-07-29T16:12:45.348Z,47.31
2017-07-29T16:15:01.774Z,47.31
2017-07-29T16:17:27.714Z,47.6
2017-07-29T16:19:52.580Z,47.7
2017-07-29T16:22:08.996Z,48.46
2017-07-29T16:24:33.831Z,48.09
2017-07-29T16:26:58.804Z,47.31
2017-07-29T16:29:26.249Z,47.43
2017-07-29T16:31:49.678Z,47.21
2017-07-29T16:34:07.193Z,47.04
2017-07-29T16:36:25.614Z,46.72
2017-07-29T16:39:07.498Z,47.41
2017-07-29T16:41:32.623Z,48.55
2017-07-29T16:43:57.495Z,48.77
2017-07-29T16:46:22.373Z,49.43
2017-07-29T16:48:47.238Z,48.07
2017-07-29T16:51:13.148Z,48.36
2017-07-29T16:53:37.961Z,47.99
2017-07-29T16:56:02.855Z,47.5
2017-07-29T16:58:28.007Z,48.58
2017-07-29T17:00:52.912Z,46.94
2017-07-29T17:03:17.758Z,47.11
2017-07-29T17:05:43.579Z,47.41
2017-07-29T17:08:08.485Z,46.92
2017-07-29T17:10:33.473Z,46.62
2017-07-29T17:12:59.165Z,47.41
2017-07-29T17:15:23.417Z,48.09
2017-07-29T17:17:48.381Z,48.21
2017-07-29T17:20:13.404Z,48.31
2017-07-29T17:22:38.243Z,46.94
2017-07-29T17:25:03.118Z,47.21
2017-07-29T17:27:28.137Z,47.8
2017-07-29T17:29:52.994Z,49.46
2017-07-29T17:32:17.899Z,48.48
2017-07-29T17:34:43.838Z,47.11
2017-07-29T17:37:08.663Z,48.48
2017-07-29T17:39:34.638Z,48.75
2017-07-29T17:41:59.651Z,48.16
2017-07-29T17:44:09.824Z,47.8
2017-07-29T17:46:34.704Z,49.26
2017-07-29T17:48:59.629Z,48.28
2017-07-29T17:51:24.522Z,48.58
2017-07-29T17:53:50.045Z,48.16
2017-07-29T17:56:06.390Z,47.99
2017-07-29T17:58:31.251Z,48.09
2017-07-29T18:00:47.622Z,48.26
2017-07-29T18:03:13.555Z,48.46
2017-07-29T18:05:24.193Z,49.22
2017-07-29T18:07:49.024Z,48.73
2017-07-29T18:09:51.134Z,49.32
2017-07-29T18:12:16.023Z,49.43
2017-07-29T18:14:41.007Z,48.46
2017-07-29T18:16:51.735Z,48.75
2017-07-29T18:19:16.591Z,48.46
2017-07-29T18:21:41.437Z,48.55
2017-07-29T18:24:06.392Z,48.94
2017-07-29T18:26:31.166Z,49.43
2017-07-29T18:28:55.961Z,50.32
2017-07-29T18:31:20.782Z,50.51
2017-07-29T18:33:45.668Z,50.22
2017-07-29T18:36:10.654Z,48.85
2017-07-29T18:38:35.572Z,49.22
2017-07-29T18:41:00.711Z,49.8
2017-07-29T18:43:25.279Z,50.78
2017-07-29T18:45:50.101Z,49.22
2017-07-29T18:48:14.934Z,51.17
2017-07-29T18:50:41.818Z,51.04
2017-07-29T18:53:06.724Z,51.63
2017-07-29T18:55:32.638Z,51.82
2017-07-29T18:57:57.473Z,51.51
2017-07-29T19:00:22.238Z,51.61
2017-07-29T19:02:46.997Z,51.41
2017-07-29T19:05:11.897Z,51.43
2017-07-29T19:07:36.719Z,51.8
2017-07-29T19:10:02.570Z,51.51
2017-07-29T19:12:27.872Z,52.68
2017-07-29T19:14:52.775Z,52.95
2017-07-29T19:17:17.572Z,53.14
2017-07-29T19:19:42.319Z,53.7
2017-07-29T19:22:07.166Z,53.6
2017-07-29T19:24:31.905Z,53.41
2017-07-29T19:26:56.665Z,53.5
2017-07-29T19:29:21.864Z,53.6
2017-07-29T19:31:46.615Z,53.89
2017-07-29T19:34:11.284Z,54.16
2017-07-29T19:36:35.989Z,55.13
2017-07-29T19:39:00.720Z,54.85
2017-07-29T19:41:25.417Z,55.72
2017-07-29T19:43:50.125Z,55.43
2017-07-29T19:46:15.357Z,55.52
2017-07-29T19:48:40.171Z,55.72
2017-07-29T19:51:04.845Z,56.4
2017-07-29T19:53:29.541Z,56.57
2017-07-29T19:57:30.117Z,58.2
2017-07-29T20:01:33.211Z,59.27
2017-07-29T20:03:57.930Z,59.17
2017-07-29T20:05:59.468Z,60.24
2017-07-29T20:08:24.179Z,59.27
2017-07-29T20:10:48.871Z,59.59
2017-07-29T20:13:14.079Z,60.05
2017-07-29T20:15:38.410Z,60.44
2017-07-29T20:19:39.627Z,60.53
2017-07-29T20:22:04.321Z,60.53
2017-07-29T20:24:29.022Z,60.89
2017-07-29T20:26:53.617Z,61.18
2017-07-29T20:29:18.234Z,61.67
2017-07-29T20:31:42.852Z,62.9
2017-07-29T20:34:07.427Z,62.51
2017-07-29T20:36:32.226Z,63.39
2017-07-29T20:38:56.860Z,63.87
2017-07-29T20:41:21.442Z,63.39
2017-07-29T20:43:37.668Z,64.23
2017-07-29T20:45:47.829Z,65.4
2017-07-29T20:48:12.488Z,65.2
2017-07-29T20:50:38.116Z,65.56
2017-07-29T20:53:02.680Z,66.34
2017-07-29T20:55:19.825Z,66.79
2017-07-29T20:57:36.020Z,67.14
2017-07-29T21:00:00.612Z,67.44
2017-07-29T21:02:25.206Z,67.83
2017-07-29T21:04:49.792Z,67.24
2017-07-29T21:07:14.393Z,67.63
2017-07-29T21:09:38.988Z,67.44
2017-07-29T21:12:03.565Z,67.28
2017-07-29T21:14:28.145Z,67.14
2017-07-29T21:16:52.657Z,67.54
2017-07-29T21:19:17.265Z,67.92
2017-07-29T21:21:41.843Z,67.54
2017-07-29T21:23:57.882Z,67.44
2017-07-29T21:26:13.924Z,67.37
2017-07-29T21:28:38.445Z,67.63
2017-07-29T21:30:54.511Z,67.24
2017-07-29T21:33:10.611Z,67.73
2017-07-29T21:35:26.652Z,67.83
2017-07-29T21:37:51.154Z,67.73
2017-07-29T21:40:15.814Z,68.41
2017-07-29T21:42:40.334Z,67.63
2017-07-29T21:45:04.901Z,67.18
2017-07-29T21:47:29.485Z,66.79
2017-07-29T21:49:45.573Z,67.57
2017-07-29T21:52:10.080Z,67.54
2017-07-29T21:54:34.672Z,67.76
2017-07-29T21:56:50.786Z,68.41
2017-07-29T21:59:15.308Z,67.76
2017-07-29T22:01:39.949Z,67.86
2017-07-29T22:04:04.449Z,67.28
2017-07-29T22:06:28.965Z,66.82
2017-07-29T22:08:45.129Z,67.28
2017-07-29T22:11:01.257Z,67.96
2017-07-29T22:13:25.785Z,67.28
2017-07-29T22:15:58.144Z,66.89
2017-07-29T22:18:22.604Z,67.11
2017-07-29T22:20:47.104Z,67.31
2017-07-29T22:22:40.141Z,66.63
2017-07-29T22:25:04.695Z,67.11
2017-07-29T22:27:29.206Z,67.31
2017-07-29T22:29:30.700Z,67.11
2017-07-29T22:31:55.273Z,67.11
2017-07-29T22:34:19.827Z,67.11
2017-07-29T22:36:44.353Z,67.02
2017-07-29T22:39:08.855Z,67.41
2017-07-29T22:41:01.863Z,67.41
2017-07-29T22:43:26.397Z,67.11
2017-07-29T22:45:50.891Z,67.31
2017-07-29T22:48:07.056Z,67.76
2017-07-29T22:50:23.243Z,67.86
2017-07-29T22:52:47.775Z,68.25
2017-07-29T22:55:12.271Z,68.83
2017-07-29T22:57:45.754Z,68.35
2017-07-29T22:59:38.772Z,68.25
2017-07-29T23:01:54.906Z,68.05
2017-07-29T23:04:19.438Z,68.35
2017-07-29T23:06:43.922Z,67.8
2017-07-29T23:09:08.455Z,68.44
2017-07-29T23:11:32.947Z,68.25
2017-07-29T23:13:57.446Z,68.35
2017-07-29T23:16:21.933Z,68.93
2017-07-29T23:18:46.424Z,68.83
2017-07-29T23:21:11.193Z,68.63
2017-07-29T23:23:35.675Z,69.22
2017-07-29T23:26:00.221Z,69.12
2017-07-29T23:28:26.770Z,69.41
2017-07-29T23:30:42.895Z,69.48
2017-07-29T23:33:07.430Z,69.48
2017-07-29T23:35:31.938Z,69.32
2017-07-29T23:37:48.032Z,69.41
2017-07-29T23:40:04.051Z,69.18
2017-07-29T23:42:20.053Z,69.57
2017-07-29T23:44:44.747Z,70.15
2017-07-29T23:47:00.790Z,69.18
2017-07-29T23:49:25.236Z,70.06
2017-07-29T23:51:41.244Z,69.96
2017-07-29T23:54:05.887Z,70.35
2017-07-29T23:56:24.573Z,70.25
2017-07-29T23:58:49.041Z,69.86
